sensor_id;sensor_type;location;lat;lon;timestamp;temperature;humidity
70051;SHT30;57391;51.306;22.680;2023-04-06T00:01:19;1.74;62.52
70051;SHT30;57391;51.306;22.680;2023-04-06T00:03:46;1.73;62.50
70051;SHT30;57391;51.306;22.680;2023-04-06T00:06:13;1.72;62.51
70051;SHT30;57391;51.306;22.680;2023-04-06T00:08:40;1.72;62.61
70051;SHT30;57391;51.306;22.680;2023-04-06T00:11:07;1.73;62.72
70051;SHT30;57391;51.306;22.680;2023-04-06T00:13:35;1.73;62.69
70051;SHT30;57391;51.306;22.680;2023-04-06T00:16:02;1.71;62.59
70051;SHT30;57391;51.306;22.680;2023-04-06T00:18:31;1.71;62.54
70051;SHT30;57391;51.306;22.680;2023-04-06T00:20:59;1.69;62.62
70051;SHT30;57391;51.306;22.680;2023-04-06T00:23:26;1.69;62.82
70051;SHT30;57391;51.306;22.680;2023-04-06T00:25:54;1.69;62.83
70051;SHT30;57391;51.306;22.680;2023-04-06T00:28:22;1.69;62.99
70051;SHT30;57391;51.306;22.680;2023-04-06T00:30:52;1.69;63.13
70051;SHT30;57391;51.306;22.680;2023-04-06T00:33:22;1.70;63.17
70051;SHT30;57391;51.306;22.680;2023-04-06T00:35:49;1.71;63.16
70051;SHT30;57391;51.306;22.680;2023-04-06T00:38:17;1.69;62.98
70051;SHT30;57391;51.306;22.680;2023-04-06T00:40:44;1.70;63.01
70051;SHT30;57391;51.306;22.680;2023-04-06T00:43:12;1.68;63.07
70051;SHT30;57391;51.306;22.680;2023-04-06T00:45:40;1.69;62.94
70051;SHT30;57391;51.306;22.680;2023-04-06T00:48:08;1.69;63.12
70051;SHT30;57391;51.306;22.680;2023-04-06T00:50:35;1.69;63.00
70051;SHT30;57391;51.306;22.680;2023-04-06T00:53:02;1.68;63.04
70051;SHT30;57391;51.306;22.680;2023-04-06T00:55:29;1.68;63.16
70051;SHT30;57391;51.306;22.680;2023-04-06T00:57:58;1.69;63.23
70051;SHT30;57391;51.306;22.680;2023-04-06T01:00:28;1.70;63.44
70051;SHT30;57391;51.306;22.680;2023-04-06T01:02:57;1.71;63.46
70051;SHT30;57391;51.306;22.680;2023-04-06T01:05:33;1.72;63.52
70051;SHT30;57391;51.306;22.680;2023-04-06T01:08:08;1.72;63.50
70051;SHT30;57391;51.306;22.680;2023-04-06T01:10:36;1.72;63.44
70051;SHT30;57391;51.306;22.680;2023-04-06T01:13:22;1.71;63.39
70051;SHT30;57391;51.306;22.680;2023-04-06T01:15:54;1.69;63.37
70051;SHT30;57391;51.306;22.680;2023-04-06T01:18:30;1.71;63.68
70051;SHT30;57391;51.306;22.680;2023-04-06T01:21:08;1.72;63.88
70051;SHT30;57391;51.306;22.680;2023-04-06T01:23:46;1.72;63.81
70051;SHT30;57391;51.306;22.680;2023-04-06T01:26:15;1.72;63.82
70051;SHT30;57391;51.306;22.680;2023-04-06T01:28:43;1.72;63.89
70051;SHT30;57391;51.306;22.680;2023-04-06T01:31:25;1.73;63.93
70051;SHT30;57391;51.306;22.680;2023-04-06T01:33:54;1.75;63.83
70051;SHT30;57391;51.306;22.680;2023-04-06T01:36:24;1.78;63.89
70051;SHT30;57391;51.306;22.680;2023-04-06T01:39:02;1.79;63.92
70051;SHT30;57391;51.306;22.680;2023-04-06T01:41:33;1.79;63.87
70051;SHT30;57391;51.306;22.680;2023-04-06T01:44:01;1.79;63.91
70051;SHT30;57391;51.306;22.680;2023-04-06T01:46:30;1.81;63.98
70051;SHT30;57391;51.306;22.680;2023-04-06T01:48:58;1.81;64.02
70051;SHT30;57391;51.306;22.680;2023-04-06T01:51:36;1.82;64.17
70051;SHT30;57391;51.306;22.680;2023-04-06T01:54:05;1.83;64.05
70051;SHT30;57391;51.306;22.680;2023-04-06T01:56:53;1.85;63.88
70051;SHT30;57391;51.306;22.680;2023-04-06T01:59:46;1.84;63.76
70051;SHT30;57391;51.306;22.680;2023-04-06T02:02:22;1.82;63.77
70051;SHT30;57391;51.306;22.680;2023-04-06T02:04:57;1.82;63.87
70051;SHT30;57391;51.306;22.680;2023-04-06T02:07:25;1.82;63.96
70051;SHT30;57391;51.306;22.680;2023-04-06T02:09:54;1.83;64.06
70051;SHT30;57391;51.306;22.680;2023-04-06T02:12:25;1.82;63.90
70051;SHT30;57391;51.306;22.680;2023-04-06T02:14:52;1.83;64.02
70051;SHT30;57391;51.306;22.680;2023-04-06T02:17:20;1.82;64.20
70051;SHT30;57391;51.306;22.680;2023-04-06T02:19:47;1.82;64.33
70051;SHT30;57391;51.306;22.680;2023-04-06T02:22:14;1.80;64.43
70051;SHT30;57391;51.306;22.680;2023-04-06T02:24:41;1.78;64.43
70051;SHT30;57391;51.306;22.680;2023-04-06T02:27:08;1.75;64.53
70051;SHT30;57391;51.306;22.680;2023-04-06T02:29:36;1.74;64.72
70051;SHT30;57391;51.306;22.680;2023-04-06T02:32:03;1.74;64.89
70051;SHT30;57391;51.306;22.680;2023-04-06T02:34:32;1.74;64.98
70051;SHT30;57391;51.306;22.680;2023-04-06T02:36:59;1.74;64.90
70051;SHT30;57391;51.306;22.680;2023-04-06T02:39:27;1.72;64.81
70051;SHT30;57391;51.306;22.680;2023-04-06T02:41:54;1.70;64.81
70051;SHT30;57391;51.306;22.680;2023-04-06T02:44:23;1.69;65.01
70051;SHT30;57391;51.306;22.680;2023-04-06T02:46:51;1.69;65.01
70051;SHT30;57391;51.306;22.680;2023-04-06T02:49:19;1.68;65.02
70051;SHT30;57391;51.306;22.680;2023-04-06T02:51:46;1.68;65.04
70051;SHT30;57391;51.306;22.680;2023-04-06T02:54:24;1.68;65.20
70051;SHT30;57391;51.306;22.680;2023-04-06T02:56:51;1.68;65.28
70051;SHT30;57391;51.306;22.680;2023-04-06T02:59:19;1.69;65.42
70051;SHT30;57391;51.306;22.680;2023-04-06T03:01:56;1.69;65.44
70051;SHT30;57391;51.306;22.680;2023-04-06T03:04:23;1.70;65.57
70051;SHT30;57391;51.306;22.680;2023-04-06T03:06:53;1.71;65.69
70051;SHT30;57391;51.306;22.680;2023-04-06T03:09:30;1.71;65.77
70051;SHT30;57391;51.306;22.680;2023-04-06T03:11:57;1.71;65.91
70051;SHT30;57391;51.306;22.680;2023-04-06T03:14:25;1.72;66.18
70051;SHT30;57391;51.306;22.680;2023-04-06T03:16:56;1.71;66.74
70051;SHT30;57391;51.306;22.680;2023-04-06T03:19:23;1.71;67.32
70051;SHT30;57391;51.306;22.680;2023-04-06T03:21:50;1.70;67.77
70051;SHT30;57391;51.306;22.680;2023-04-06T03:24:19;1.69;68.67
70051;SHT30;57391;51.306;22.680;2023-04-06T03:26:46;1.65;69.35
70051;SHT30;57391;51.306;22.680;2023-04-06T03:29:14;1.63;69.45
70051;SHT30;57391;51.306;22.680;2023-04-06T03:31:41;1.61;69.77
70051;SHT30;57391;51.306;22.680;2023-04-06T03:34:25;1.54;70.10
70051;SHT30;57391;51.306;22.680;2023-04-06T03:36:52;1.50;70.42
70051;SHT30;57391;51.306;22.680;2023-04-06T03:39:19;1.49;70.65
70051;SHT30;57391;51.306;22.680;2023-04-06T03:41:46;1.49;71.10
70051;SHT30;57391;51.306;22.680;2023-04-06T03:44:29;1.45;71.34
70051;SHT30;57391;51.306;22.680;2023-04-06T03:46:56;1.43;71.58
70051;SHT30;57391;51.306;22.680;2023-04-06T03:49:23;1.39;71.96
70051;SHT30;57391;51.306;22.680;2023-04-06T03:51:52;1.37;72.20
70051;SHT30;57391;51.306;22.680;2023-04-06T03:54:19;1.34;72.38
70051;SHT30;57391;51.306;22.680;2023-04-06T03:56:47;1.32;72.59
70051;SHT30;57391;51.306;22.680;2023-04-06T03:59:14;1.28;72.77
70051;SHT30;57391;51.306;22.680;2023-04-06T04:01:41;1.27;72.89
70051;SHT30;57391;51.306;22.680;2023-04-06T04:04:09;1.24;72.96
70051;SHT30;57391;51.306;22.680;2023-04-06T04:06:37;1.21;73.19
70051;SHT30;57391;51.306;22.680;2023-04-06T04:09:05;1.18;73.35
70051;SHT30;57391;51.306;22.680;2023-04-06T04:11:33;1.18;73.46
70051;SHT30;57391;51.306;22.680;2023-04-06T04:14:00;1.17;73.46
70051;SHT30;57391;51.306;22.680;2023-04-06T04:16:27;1.16;73.48
70051;SHT30;57391;51.306;22.680;2023-04-06T04:18:54;1.14;73.56
70051;SHT30;57391;51.306;22.680;2023-04-06T04:21:23;1.15;73.65
70051;SHT30;57391;51.306;22.680;2023-04-06T04:23:51;1.15;73.76
70051;SHT30;57391;51.306;22.680;2023-04-06T04:26:19;1.13;73.77
70051;SHT30;57391;51.306;22.680;2023-04-06T04:28:46;1.12;74.03
70051;SHT30;57391;51.306;22.680;2023-04-06T04:31:14;1.11;74.23
70051;SHT30;57391;51.306;22.680;2023-04-06T04:33:44;1.11;74.06
70051;SHT30;57391;51.306;22.680;2023-04-06T04:36:14;1.09;74.23
70051;SHT30;57391;51.306;22.680;2023-04-06T04:38:43;1.09;74.19
70051;SHT30;57391;51.306;22.680;2023-04-06T04:41:11;1.08;74.22
70051;SHT30;57391;51.306;22.680;2023-04-06T04:43:40;1.10;74.28
70051;SHT30;57391;51.306;22.680;2023-04-06T04:46:07;1.10;74.40
70051;SHT30;57391;51.306;22.680;2023-04-06T04:48:38;1.11;74.40
70051;SHT30;57391;51.306;22.680;2023-04-06T04:51:06;1.12;74.36
70051;SHT30;57391;51.306;22.680;2023-04-06T04:54:03;1.13;74.32
70051;SHT30;57391;51.306;22.680;2023-04-06T04:56:32;1.14;74.41
70051;SHT30;57391;51.306;22.680;2023-04-06T04:59:06;1.15;74.44
70051;SHT30;57391;51.306;22.680;2023-04-06T05:01:36;1.14;74.51
70051;SHT30;57391;51.306;22.680;2023-04-06T05:04:03;1.15;74.70
70051;SHT30;57391;51.306;22.680;2023-04-06T05:06:31;1.16;74.77
70051;SHT30;57391;51.306;22.680;2023-04-06T05:08:58;1.17;74.96
70051;SHT30;57391;51.306;22.680;2023-04-06T05:11:25;1.15;75.19
70051;SHT30;57391;51.306;22.680;2023-04-06T05:13:56;1.13;75.36
70051;SHT30;57391;51.306;22.680;2023-04-06T05:16:24;1.11;75.62
70051;SHT30;57391;51.306;22.680;2023-04-06T05:18:52;1.10;75.68
70051;SHT30;57391;51.306;22.680;2023-04-06T05:21:20;1.09;75.81
70051;SHT30;57391;51.306;22.680;2023-04-06T05:24:02;1.08;76.02
70051;SHT30;57391;51.306;22.680;2023-04-06T05:26:31;1.07;76.06
70051;SHT30;57391;51.306;22.680;2023-04-06T05:29:01;1.07;76.25
70051;SHT30;57391;51.306;22.680;2023-04-06T05:31:30;1.07;76.34
70051;SHT30;57391;51.306;22.680;2023-04-06T05:33:58;1.07;76.56
70051;SHT30;57391;51.306;22.680;2023-04-06T05:36:32;1.07;76.61
70051;SHT30;57391;51.306;22.680;2023-04-06T05:39:02;1.10;76.66
70051;SHT30;57391;51.306;22.680;2023-04-06T05:41:40;1.12;76.65
70051;SHT30;57391;51.306;22.680;2023-04-06T05:44:07;1.13;76.69
70051;SHT30;57391;51.306;22.680;2023-04-06T05:46:35;1.14;76.63
70051;SHT30;57391;51.306;22.680;2023-04-06T05:49:03;1.16;76.63
70051;SHT30;57391;51.306;22.680;2023-04-06T05:51:32;1.20;76.69
70051;SHT30;57391;51.306;22.680;2023-04-06T05:54:00;1.23;76.62
70051;SHT30;57391;51.306;22.680;2023-04-06T05:56:28;1.25;76.48
70051;SHT30;57391;51.306;22.680;2023-04-06T05:58:56;1.28;76.50
70051;SHT30;57391;51.306;22.680;2023-04-06T06:01:27;1.30;76.51
70051;SHT30;57391;51.306;22.680;2023-04-06T06:03:55;1.32;76.42
70051;SHT30;57391;51.306;22.680;2023-04-06T06:06:25;1.31;76.33
70051;SHT30;57391;51.306;22.680;2023-04-06T06:09:09;1.32;76.33
70051;SHT30;57391;51.306;22.680;2023-04-06T06:11:41;1.31;76.37
70051;SHT30;57391;51.306;22.680;2023-04-06T06:14:09;1.32;76.43
70051;SHT30;57391;51.306;22.680;2023-04-06T06:16:37;1.31;76.44
70051;SHT30;57391;51.306;22.680;2023-04-06T06:19:05;1.30;76.53
70051;SHT30;57391;51.306;22.680;2023-04-06T06:21:32;1.30;76.57
70051;SHT30;57391;51.306;22.680;2023-04-06T06:24:01;1.29;76.56
70051;SHT30;57391;51.306;22.680;2023-04-06T06:26:29;1.29;76.52
70051;SHT30;57391;51.306;22.680;2023-04-06T06:28:57;1.29;76.70
70051;SHT30;57391;51.306;22.680;2023-04-06T06:31:24;1.30;76.73
70051;SHT30;57391;51.306;22.680;2023-04-06T06:33:51;1.30;76.70
70051;SHT30;57391;51.306;22.680;2023-04-06T06:36:19;1.30;76.82
70051;SHT30;57391;51.306;22.680;2023-04-06T06:38:46;1.33;76.98
70051;SHT30;57391;51.306;22.680;2023-04-06T06:41:15;1.33;77.08
70051;SHT30;57391;51.306;22.680;2023-04-06T06:43:43;1.35;77.07
70051;SHT30;57391;51.306;22.680;2023-04-06T06:46:11;1.36;77.27
70051;SHT30;57391;51.306;22.680;2023-04-06T06:48:39;1.38;77.45
70051;SHT30;57391;51.306;22.680;2023-04-06T06:51:06;1.38;77.69
70051;SHT30;57391;51.306;22.680;2023-04-06T06:53:35;1.38;77.83
70051;SHT30;57391;51.306;22.680;2023-04-06T06:56:02;1.38;77.98
70051;SHT30;57391;51.306;22.680;2023-04-06T06:58:30;1.38;78.07
70051;SHT30;57391;51.306;22.680;2023-04-06T07:00:58;1.37;78.19
70051;SHT30;57391;51.306;22.680;2023-04-06T07:03:26;1.37;78.40
70051;SHT30;57391;51.306;22.680;2023-04-06T07:05:54;1.38;78.44
70051;SHT30;57391;51.306;22.680;2023-04-06T07:08:23;1.41;78.50
70051;SHT30;57391;51.306;22.680;2023-04-06T07:10:51;1.39;78.68
70051;SHT30;57391;51.306;22.680;2023-04-06T07:13:20;1.40;78.95
70051;SHT30;57391;51.306;22.680;2023-04-06T07:15:52;1.40;79.11
70051;SHT30;57391;51.306;22.680;2023-04-06T07:18:19;1.40;79.20
70051;SHT30;57391;51.306;22.680;2023-04-06T07:20:48;1.40;79.29
70051;SHT30;57391;51.306;22.680;2023-04-06T07:23:16;1.41;79.50
70051;SHT30;57391;51.306;22.680;2023-04-06T07:25:44;1.41;79.54
70051;SHT30;57391;51.306;22.680;2023-04-06T07:28:12;1.41;79.76
70051;SHT30;57391;51.306;22.680;2023-04-06T07:30:40;1.40;79.81
70051;SHT30;57391;51.306;22.680;2023-04-06T07:33:08;1.38;79.99
70051;SHT30;57391;51.306;22.680;2023-04-06T07:35:35;1.38;80.36
70051;SHT30;57391;51.306;22.680;2023-04-06T07:38:03;1.37;80.40
70051;SHT30;57391;51.306;22.680;2023-04-06T07:40:31;1.38;80.53
70051;SHT30;57391;51.306;22.680;2023-04-06T07:42:59;1.39;80.67
70051;SHT30;57391;51.306;22.680;2023-04-06T07:45:29;1.41;80.79
70051;SHT30;57391;51.306;22.680;2023-04-06T07:47:57;1.42;80.83
70051;SHT30;57391;51.306;22.680;2023-04-06T07:50:25;1.44;80.93
70051;SHT30;57391;51.306;22.680;2023-04-06T07:52:52;1.45;80.92
70051;SHT30;57391;51.306;22.680;2023-04-06T07:55:20;1.47;80.91
70051;SHT30;57391;51.306;22.680;2023-04-06T07:57:47;1.48;80.89
70051;SHT30;57391;51.306;22.680;2023-04-06T08:00:15;1.48;80.97
70051;SHT30;57391;51.306;22.680;2023-04-06T08:02:42;1.50;81.00
70051;SHT30;57391;51.306;22.680;2023-04-06T08:05:10;1.50;80.95
70051;SHT30;57391;51.306;22.680;2023-04-06T08:07:37;1.51;80.97
70051;SHT30;57391;51.306;22.680;2023-04-06T08:10:05;1.52;80.90
70051;SHT30;57391;51.306;22.680;2023-04-06T08:12:33;1.54;80.99
70051;SHT30;57391;51.306;22.680;2023-04-06T08:15:00;1.57;80.98
70051;SHT30;57391;51.306;22.680;2023-04-06T08:17:29;1.59;80.87
70051;SHT30;57391;51.306;22.680;2023-04-06T08:19:57;1.61;80.82
70051;SHT30;57391;51.306;22.680;2023-04-06T08:22:25;1.62;80.88
70051;SHT30;57391;51.306;22.680;2023-04-06T08:24:52;1.63;80.80
70051;SHT30;57391;51.306;22.680;2023-04-06T08:27:20;1.64;80.78
70051;SHT30;57391;51.306;22.680;2023-04-06T08:29:47;1.67;80.83
70051;SHT30;57391;51.306;22.680;2023-04-06T08:32:17;1.69;80.82
70051;SHT30;57391;51.306;22.680;2023-04-06T08:34:45;1.69;80.80
70051;SHT30;57391;51.306;22.680;2023-04-06T08:37:13;1.70;80.80
70051;SHT30;57391;51.306;22.680;2023-04-06T08:39:40;1.71;80.83
70051;SHT30;57391;51.306;22.680;2023-04-06T08:42:16;1.73;80.92
70051;SHT30;57391;51.306;22.680;2023-04-06T08:44:52;1.76;80.82
70051;SHT30;57391;51.306;22.680;2023-04-06T08:47:22;1.77;80.68
70051;SHT30;57391;51.306;22.680;2023-04-06T08:49:49;1.82;80.66
70051;SHT30;57391;51.306;22.680;2023-04-06T08:52:18;1.86;80.56
70051;SHT30;57391;51.306;22.680;2023-04-06T08:54:46;1.91;80.60
70051;SHT30;57391;51.306;22.680;2023-04-06T08:57:16;1.97;80.54
70051;SHT30;57391;51.306;22.680;2023-04-06T08:59:46;2.02;80.38
70051;SHT30;57391;51.306;22.680;2023-04-06T09:02:15;2.04;80.34
70051;SHT30;57391;51.306;22.680;2023-04-06T09:04:47;2.07;80.34
70051;SHT30;57391;51.306;22.680;2023-04-06T09:07:16;2.08;80.36
70051;SHT30;57391;51.306;22.680;2023-04-06T09:09:43;2.08;80.40
70051;SHT30;57391;51.306;22.680;2023-04-06T09:12:27;2.07;80.39
70051;SHT30;57391;51.306;22.680;2023-04-06T09:14:56;2.08;80.55
70051;SHT30;57391;51.306;22.680;2023-04-06T09:17:25;2.11;80.59
70051;SHT30;57391;51.306;22.680;2023-04-06T09:19:57;2.12;80.71
70051;SHT30;57391;51.306;22.680;2023-04-06T09:22:24;2.12;80.76
70051;SHT30;57391;51.306;22.680;2023-04-06T09:24:54;2.11;80.91
70051;SHT30;57391;51.306;22.680;2023-04-06T09:27:31;2.09;81.00
70051;SHT30;57391;51.306;22.680;2023-04-06T09:30:10;2.09;81.09
70051;SHT30;57391;51.306;22.680;2023-04-06T09:32:50;2.10;81.19
70051;SHT30;57391;51.306;22.680;2023-04-06T09:35:20;2.09;81.34
70051;SHT30;57391;51.306;22.680;2023-04-06T09:37:48;2.12;81.40
70051;SHT30;57391;51.306;22.680;2023-04-06T09:40:18;2.12;81.40
70051;SHT30;57391;51.306;22.680;2023-04-06T09:42:48;2.13;81.48
70051;SHT30;57391;51.306;22.680;2023-04-06T09:45:19;2.14;81.66
70051;SHT30;57391;51.306;22.680;2023-04-06T09:47:47;2.15;81.77
70051;SHT30;57391;51.306;22.680;2023-04-06T09:50:16;2.18;81.96
70051;SHT30;57391;51.306;22.680;2023-04-06T09:52:49;2.20;81.92
70051;SHT30;57391;51.306;22.680;2023-04-06T09:55:26;2.21;81.99
70051;SHT30;57391;51.306;22.680;2023-04-06T09:58:05;2.23;82.00
70051;SHT30;57391;51.306;22.680;2023-04-06T10:00:43;2.26;82.04
70051;SHT30;57391;51.306;22.680;2023-04-06T10:03:33;2.31;82.00
70051;SHT30;57391;51.306;22.680;2023-04-06T10:06:23;2.31;81.66
70051;SHT30;57391;51.306;22.680;2023-04-06T10:08:54;2.34;81.82
70051;SHT30;57391;51.306;22.680;2023-04-06T10:11:22;2.37;81.85
70051;SHT30;57391;51.306;22.680;2023-04-06T10:13:50;2.40;81.84
70051;SHT30;57391;51.306;22.680;2023-04-06T10:16:17;2.43;81.97
70051;SHT30;57391;51.306;22.680;2023-04-06T10:18:50;2.45;82.00
70051;SHT30;57391;51.306;22.680;2023-04-06T10:21:32;2.47;82.04
70051;SHT30;57391;51.306;22.680;2023-04-06T10:24:01;2.48;82.11
70051;SHT30;57391;51.306;22.680;2023-04-06T10:26:37;2.49;82.22
70051;SHT30;57391;51.306;22.680;2023-04-06T10:29:04;2.49;82.22
70051;SHT30;57391;51.306;22.680;2023-04-06T10:31:32;2.48;82.33
70051;SHT30;57391;51.306;22.680;2023-04-06T10:34:00;2.47;82.39
70051;SHT30;57391;51.306;22.680;2023-04-06T10:36:35;2.47;82.40
70051;SHT30;57391;51.306;22.680;2023-04-06T10:39:07;2.46;82.38
70051;SHT30;57391;51.306;22.680;2023-04-06T10:41:45;2.48;82.46
70051;SHT30;57391;51.306;22.680;2023-04-06T10:44:20;2.48;82.52
70051;SHT30;57391;51.306;22.680;2023-04-06T10:46:52;2.49;82.56
70051;SHT30;57391;51.306;22.680;2023-04-06T10:49:21;2.52;82.64
70051;SHT30;57391;51.306;22.680;2023-04-06T10:51:55;2.52;82.62
70051;SHT30;57391;51.306;22.680;2023-04-06T10:54:24;2.52;82.74
70051;SHT30;57391;51.306;22.680;2023-04-06T10:56:53;2.55;82.83
70051;SHT30;57391;51.306;22.680;2023-04-06T10:59:21;2.55;82.84
70051;SHT30;57391;51.306;22.680;2023-04-06T11:01:50;2.56;82.93
70051;SHT30;57391;51.306;22.680;2023-04-06T11:04:18;2.55;83.02
70051;SHT30;57391;51.306;22.680;2023-04-06T11:06:48;2.56;83.16
70051;SHT30;57391;51.306;22.680;2023-04-06T11:09:26;2.56;83.17
70051;SHT30;57391;51.306;22.680;2023-04-06T11:11:56;2.55;83.22
70051;SHT30;57391;51.306;22.680;2023-04-06T11:14:23;2.56;83.28
70051;SHT30;57391;51.306;22.680;2023-04-06T11:16:52;2.59;83.24
70051;SHT30;57391;51.306;22.680;2023-04-06T11:19:20;2.62;83.40
70051;SHT30;57391;51.306;22.680;2023-04-06T11:21:47;2.66;83.49
70051;SHT30;57391;51.306;22.680;2023-04-06T11:24:22;2.70;83.36
70051;SHT30;57391;51.306;22.680;2023-04-06T11:26:53;2.71;83.06
70051;SHT30;57391;51.306;22.680;2023-04-06T11:32:03;2.71;83.04
70051;SHT30;57391;51.306;22.680;2023-04-06T11:34:36;2.70;82.97
70051;SHT30;57391;51.306;22.680;2023-04-06T11:37:08;2.69;83.07
70051;SHT30;57391;51.306;22.680;2023-04-06T11:39:39;2.70;83.10
70051;SHT30;57391;51.306;22.680;2023-04-06T11:42:24;2.68;83.20
70051;SHT30;57391;51.306;22.680;2023-04-06T11:44:53;2.66;83.29
70051;SHT30;57391;51.306;22.680;2023-04-06T11:47:32;2.66;83.39
70051;SHT30;57391;51.306;22.680;2023-04-06T11:50:11;2.66;83.52
70051;SHT30;57391;51.306;22.680;2023-04-06T11:52:40;2.66;83.61
70051;SHT30;57391;51.306;22.680;2023-04-06T11:55:12;2.67;83.61
70051;SHT30;57391;51.306;22.680;2023-04-06T11:57:45;2.71;83.69
70051;SHT30;57391;51.306;22.680;2023-04-06T12:00:12;2.73;83.70
70051;SHT30;57391;51.306;22.680;2023-04-06T12:02:44;2.75;83.62
70051;SHT30;57391;51.306;22.680;2023-04-06T12:05:13;2.75;83.64
70051;SHT30;57391;51.306;22.680;2023-04-06T12:07:41;2.79;83.63
70051;SHT30;57391;51.306;22.680;2023-04-06T12:10:08;2.79;83.61
70051;SHT30;57391;51.306;22.680;2023-04-06T12:12:36;2.82;83.75
70051;SHT30;57391;51.306;22.680;2023-04-06T12:15:06;2.84;83.83
70051;SHT30;57391;51.306;22.680;2023-04-06T12:17:37;2.85;83.86
70051;SHT30;57391;51.306;22.680;2023-04-06T12:20:07;2.86;83.95
70051;SHT30;57391;51.306;22.680;2023-04-06T12:22:37;2.87;83.94
70051;SHT30;57391;51.306;22.680;2023-04-06T12:25:10;2.89;83.90
70051;SHT30;57391;51.306;22.680;2023-04-06T12:27:38;2.92;83.85
70051;SHT30;57391;51.306;22.680;2023-04-06T12:30:06;2.94;83.73
70051;SHT30;57391;51.306;22.680;2023-04-06T12:32:34;2.95;83.61
70051;SHT30;57391;51.306;22.680;2023-04-06T12:35:02;2.97;83.60
70051;SHT30;57391;51.306;22.680;2023-04-06T12:37:29;2.99;83.53
70051;SHT30;57391;51.306;22.680;2023-04-06T12:39:58;3.02;83.59
70051;SHT30;57391;51.306;22.680;2023-04-06T12:42:31;3.05;83.53
70051;SHT30;57391;51.306;22.680;2023-04-06T12:44:59;3.07;83.61
70051;SHT30;57391;51.306;22.680;2023-04-06T12:47:27;3.09;83.69
70051;SHT30;57391;51.306;22.680;2023-04-06T12:49:55;3.12;83.67
70051;SHT30;57391;51.306;22.680;2023-04-06T12:52:22;3.14;83.69
70051;SHT30;57391;51.306;22.680;2023-04-06T12:54:49;3.14;83.63
70051;SHT30;57391;51.306;22.680;2023-04-06T12:57:17;3.15;83.69
70051;SHT30;57391;51.306;22.680;2023-04-06T12:59:45;3.16;83.71
70051;SHT30;57391;51.306;22.680;2023-04-06T13:02:12;3.18;83.77
70051;SHT30;57391;51.306;22.680;2023-04-06T13:04:40;3.19;83.80
70051;SHT30;57391;51.306;22.680;2023-04-06T13:07:07;3.20;83.80
70051;SHT30;57391;51.306;22.680;2023-04-06T13:09:34;3.22;83.81
70051;SHT30;57391;51.306;22.680;2023-04-06T13:12:02;3.23;83.79
70051;SHT30;57391;51.306;22.680;2023-04-06T13:14:30;3.25;83.72
70051;SHT30;57391;51.306;22.680;2023-04-06T13:16:58;3.25;83.73
70051;SHT30;57391;51.306;22.680;2023-04-06T13:19:26;3.25;83.75
70051;SHT30;57391;51.306;22.680;2023-04-06T13:21:53;3.26;83.80
70051;SHT30;57391;51.306;22.680;2023-04-06T13:24:21;3.28;83.80
70051;SHT30;57391;51.306;22.680;2023-04-06T13:26:51;3.27;83.74
70051;SHT30;57391;51.306;22.680;2023-04-06T13:29:18;3.28;83.79
70051;SHT30;57391;51.306;22.680;2023-04-06T13:31:45;3.29;83.82
70051;SHT30;57391;51.306;22.680;2023-04-06T13:34:12;3.28;83.84
70051;SHT30;57391;51.306;22.680;2023-04-06T13:36:39;3.30;83.92
70051;SHT30;57391;51.306;22.680;2023-04-06T13:39:08;3.31;83.95
70051;SHT30;57391;51.306;22.680;2023-04-06T13:41:35;3.33;84.02
70051;SHT30;57391;51.306;22.680;2023-04-06T13:44:02;3.34;84.06
70051;SHT30;57391;51.306;22.680;2023-04-06T13:46:29;3.36;84.09
70051;SHT30;57391;51.306;22.680;2023-04-06T13:48:56;3.39;84.13
70051;SHT30;57391;51.306;22.680;2023-04-06T13:51:24;3.41;84.17
70051;SHT30;57391;51.306;22.680;2023-04-06T13:53:51;3.41;84.14
70051;SHT30;57391;51.306;22.680;2023-04-06T13:56:19;3.42;84.20
70051;SHT30;57391;51.306;22.680;2023-04-06T13:58:47;3.43;84.20
70051;SHT30;57391;51.306;22.680;2023-04-06T14:01:14;3.44;84.20
70051;SHT30;57391;51.306;22.680;2023-04-06T14:03:41;3.47;84.20
70051;SHT30;57391;51.306;22.680;2023-04-06T14:06:11;3.48;84.20
70051;SHT30;57391;51.306;22.680;2023-04-06T14:08:40;3.50;84.20
70051;SHT30;57391;51.306;22.680;2023-04-06T14:11:10;3.51;84.20
70051;SHT30;57391;51.306;22.680;2023-04-06T14:13:40;3.51;84.19
70051;SHT30;57391;51.306;22.680;2023-04-06T14:16:07;3.53;84.22
70051;SHT30;57391;51.306;22.680;2023-04-06T14:18:36;3.53;84.24
70051;SHT30;57391;51.306;22.680;2023-04-06T14:21:03;3.55;84.20
70051;SHT30;57391;51.306;22.680;2023-04-06T14:23:33;3.58;84.20
70051;SHT30;57391;51.306;22.680;2023-04-06T14:26:02;3.59;84.18
70051;SHT30;57391;51.306;22.680;2023-04-06T14:28:32;3.61;84.20
70051;SHT30;57391;51.306;22.680;2023-04-06T14:31:08;3.63;84.18
70051;SHT30;57391;51.306;22.680;2023-04-06T14:33:40;3.63;84.17
70051;SHT30;57391;51.306;22.680;2023-04-06T14:36:08;3.65;84.23
70051;SHT30;57391;51.306;22.680;2023-04-06T14:38:36;3.66;84.30
70051;SHT30;57391;51.306;22.680;2023-04-06T14:41:05;3.66;84.30
70051;SHT30;57391;51.306;22.680;2023-04-06T14:43:32;3.68;84.31
70051;SHT30;57391;51.306;22.680;2023-04-06T14:46:00;3.71;84.32
70051;SHT30;57391;51.306;22.680;2023-04-06T14:48:29;3.76;84.29
70051;SHT30;57391;51.306;22.680;2023-04-06T14:50:56;3.76;84.20
70051;SHT30;57391;51.306;22.680;2023-04-06T14:53:24;3.78;84.20
70051;SHT30;57391;51.306;22.680;2023-04-06T14:55:52;3.79;84.26
70051;SHT30;57391;51.306;22.680;2023-04-06T14:58:21;3.79;84.24
70051;SHT30;57391;51.306;22.680;2023-04-06T15:01:00;3.79;84.30
70051;SHT30;57391;51.306;22.680;2023-04-06T15:03:28;3.80;84.29
70051;SHT30;57391;51.306;22.680;2023-04-06T15:05:56;3.81;84.34
70051;SHT30;57391;51.306;22.680;2023-04-06T15:08:24;3.82;84.34
70051;SHT30;57391;51.306;22.680;2023-04-06T15:10:52;3.83;84.37
70051;SHT30;57391;51.306;22.680;2023-04-06T15:13:21;3.81;84.40
70051;SHT30;57391;51.306;22.680;2023-04-06T15:15:49;3.82;84.42
70051;SHT30;57391;51.306;22.680;2023-04-06T15:18:18;3.82;84.41
70051;SHT30;57391;51.306;22.680;2023-04-06T15:20:46;3.81;84.45
70051;SHT30;57391;51.306;22.680;2023-04-06T15:23:14;3.81;84.48
70051;SHT30;57391;51.306;22.680;2023-04-06T15:25:41;3.83;84.54
70051;SHT30;57391;51.306;22.680;2023-04-06T15:28:08;3.86;84.56
70051;SHT30;57391;51.306;22.680;2023-04-06T15:30:35;3.88;84.57
70051;SHT30;57391;51.306;22.680;2023-04-06T15:33:03;3.88;84.54
70051;SHT30;57391;51.306;22.680;2023-04-06T15:35:34;3.89;84.54
70051;SHT30;57391;51.306;22.680;2023-04-06T15:38:06;3.89;84.60
70051;SHT30;57391;51.306;22.680;2023-04-06T15:40:34;3.90;84.61
70051;SHT30;57391;51.306;22.680;2023-04-06T15:43:09;3.91;84.63
70051;SHT30;57391;51.306;22.680;2023-04-06T15:45:37;3.94;84.62
70051;SHT30;57391;51.306;22.680;2023-04-06T15:48:04;3.94;84.58